Time,TemperatureF,DewpointF,PressureIn,WindDirection,WindDirectionDegrees,WindSpeedMPH,WindSpeedGustMPH,Humidity,HourlyPrecipIn,Conditions,Clouds,dailyrainin,SoftwareType,DateUTC
2013-02-20 00:00:00,39.0,29.3,29.78,NW,312,9.0,11.0,68,0.00,,,0.00,Wunderground v.1.15,2013-02-20 05:00:00,
2013-02-20 00:04:00,38.8,29.1,29.78,WNW,287,8.0,9.0,68,0.00,,,0.00,Wunderground v.1.15,2013-02-20 05:04:00,
2013-02-20 00:10:00,38.7,29.0,29.79,West,280,8.0,12.0,68,0.00,,,0.00,Wunderground v.1.15,2013-02-20 05:10:00,
2013-02-20 00:12:00,38.6,28.6,29.79,WNW,282,9.0,9.0,67,0.00,,,0.00,Wunderground v.1.15,2013-02-20 05:12:00,
2013-02-20 00:18:00,38.5,28.1,29.79,West,277,9.0,11.0,66,0.00,,,0.00,Wunderground v.1.15,2013-02-20 05:18:00,
2013-02-20 00:24:00,38.3,27.9,29.79,West,260,8.0,13.0,66,0.00,,,0.00,Wunderground v.1.15,2013-02-20 05:24:00,
2013-02-20 00:30:00,38.1,27.4,29.79,NW,313,8.0,13.0,65,0.00,,,0.00,Wunderground v.1.15,2013-02-20 05:30:00,
2013-02-20 00:36:00,38.0,27.6,29.79,West,279,8.0,17.0,66,0.00,,,0.00,Wunderground v.1.15,2013-02-20 05:36:00,
2013-02-20 00:42:00,37.9,27.2,29.79,NW,319,8.0,14.0,65,0.00,,,0.00,Wunderground v.1.15,2013-02-20 05:42:00,
2013-02-20 00:48:00,37.7,27.0,29.79,WNW,288,9.0,14.0,65,0.00,,,0.00,Wunderground v.1.15,2013-02-20 05:48:00,
2013-02-20 00:54:00,37.4,27.1,29.79,NW,309,6.0,9.0,66,0.00,,,0.00,Wunderground v.1.15,2013-02-20 05:54:00,
2013-02-20 01:00:00,37.2,26.9,29.79,WNW,297,6.0,9.0,66,0.00,,,0.00,Wunderground v.1.15,2013-02-20 06:00:00,
2013-02-20 01:06:00,37.1,27.2,29.79,WNW,301,7.0,7.0,67,0.00,,,0.00,Wunderground v.1.15,2013-02-20 06:06:00,
2013-02-20 01:12:00,36.9,27.3,29.79,WNW,303,7.0,7.0,68,0.00,,,0.00,Wunderground v.1.15,2013-02-20 06:12:00,
2013-02-20 01:18:00,36.7,27.1,29.79,WNW,300,5.0,7.0,68,0.00,,,0.00,Wunderground v.1.15,2013-02-20 06:18:00,
2013-02-20 01:24:00,36.4,27.2,29.79,NNW,327,4.0,7.0,69,0.00,,,0.00,Wunderground v.1.15,2013-02-20 06:24:00,
2013-02-20 01:30:00,36.5,26.6,29.80,West,269,6.0,11.0,67,0.00,,,0.00,Wunderground v.1.15,2013-02-20 06:30:00,
2013-02-20 01:36:00,36.5,25.8,29.80,WNW,294,7.0,10.0,65,0.00,,,0.00,Wunderground v.1.15,2013-02-20 06:36:00,
2013-02-20 01:42:00,36.6,24.0,29.80,WNW,294,9.0,9.0,60,0.00,,,0.00,Wunderground v.1.15,2013-02-20 06:42:00,
2013-02-20 01:48:00,36.5,23.1,29.80,WSW,246,10.0,13.0,58,0.00,,,0.00,Wunderground v.1.15,2013-02-20 06:48:00,
2013-02-20 01:54:00,36.4,22.6,29.80,West,281,9.0,10.0,57,0.00,,,0.00,Wunderground v.1.15,2013-02-20 06:54:00,
2013-02-20 02:00:00,36.2,22.4,29.80,West,271,7.0,13.0,57,0.00,,,0.00,Wunderground v.1.15,2013-02-20 07:00:00,
2013-02-20 02:06:00,36.1,21.9,29.81,WSW,250,9.0,9.0,56,0.00,,,0.00,Wunderground v.1.15,2013-02-20 07:06:00,
2013-02-20 02:12:00,35.9,22.1,29.81,WSW,250,9.0,9.0,57,0.00,,,0.00,Wunderground v.1.15,2013-02-20 07:12:00,
2013-02-20 02:18:00,35.7,21.9,29.81,West,271,8.0,13.0,57,0.00,,,0.00,Wunderground v.1.15,2013-02-20 07:18:00,
2013-02-20 02:24:00,35.6,21.9,29.81,WNW,303,8.0,8.0,57,0.00,,,0.00,Wunderground v.1.15,2013-02-20 07:24:00,
2013-02-20 02:30:00,35.4,21.7,29.81,NW,319,8.0,12.0,57,0.00,,,0.00,Wunderground v.1.15,2013-02-20 07:30:00,
2013-02-20 02:36:00,35.2,21.9,29.81,WNW,287,9.0,13.0,58,0.00,,,0.00,Wunderground v.1.15,2013-02-20 07:36:00,
2013-02-20 02:42:00,35.1,21.8,29.81,NW,313,9.0,9.0,58,0.00,,,0.00,Wunderground v.1.15,2013-02-20 07:42:00,
2013-02-20 02:48:00,34.9,22.0,29.81,West,261,7.0,9.0,59,0.00,,,0.00,Wunderground v.1.15,2013-02-20 07:48:00,
2013-02-20 02:54:00,34.6,22.1,29.82,WNW,284,6.0,8.0,60,0.00,,,0.00,Wunderground v.1.15,2013-02-20 07:54:00,
2013-02-20 03:00:00,34.5,22.0,29.82,West,273,7.0,9.0,60,0.00,,,0.00,Wunderground v.1.15,2013-02-20 08:00:00,
2013-02-20 03:06:00,34.2,21.7,29.82,West,270,6.0,10.0,60,0.00,,,0.00,Wunderground v.1.15,2013-02-20 08:06:00,
2013-02-20 03:12:00,34.1,21.7,29.81,SSW,198,6.0,6.0,60,0.00,,,0.00,Wunderground v.1.15,2013-02-20 08:12:00,
2013-02-20 03:18:00,33.9,21.5,29.82,WNW,291,7.0,15.0,60,0.00,,,0.00,Wunderground v.1.15,2013-02-20 08:18:00,
2013-02-20 03:24:00,33.7,20.9,29.82,WNW,289,8.0,15.0,59,0.00,,,0.00,Wunderground v.1.15,2013-02-20 08:24:00,
2013-02-20 03:30:00,33.5,21.1,29.82,WNW,284,7.0,15.0,60,0.00,,,0.00,Wunderground v.1.15,2013-02-20 08:30:00,
2013-02-20 03:36:00,33.3,20.5,29.82,WNW,284,7.0,15.0,59,0.00,,,0.00,Wunderground v.1.15,2013-02-20 08:36:00,
2013-02-20 03:42:00,33.2,20.4,29.82,WNW,295,7.0,15.0,59,0.00,,,0.00,Wunderground v.1.15,2013-02-20 08:42:00,
2013-02-20 03:48:00,33.3,20.1,29.82,West,275,9.0,18.0,58,0.00,,,0.00,Wunderground v.1.15,2013-02-20 08:48:00,
2013-02-20 03:54:00,33.2,20.0,29.83,SW,219,8.0,15.0,58,0.00,,,0.00,Wunderground v.1.15,2013-02-20 08:54:00,
2013-02-20 04:00:00,33.1,19.9,29.82,NW,307,8.0,15.0,58,0.00,,,0.00,Wunderground v.1.15,2013-02-20 09:00:00,
2013-02-20 04:06:00,33.0,19.8,29.82,WNW,298,7.0,15.0,58,0.00,,,0.00,Wunderground v.1.15,2013-02-20 09:06:00,
2013-02-20 04:12:00,32.8,20.0,29.83,WNW,288,7.0,15.0,59,0.00,,,0.00,Wunderground v.1.15,2013-02-20 09:12:00,
2013-02-20 04:18:00,32.8,20.0,29.83,WNW,286,8.0,18.0,59,0.00,,,0.00,Wunderground v.1.15,2013-02-20 09:18:00,
2013-02-20 04:24:00,32.7,19.9,29.84,NNW,329,9.0,9.0,59,0.00,,,0.00,Wunderground v.1.15,2013-02-20 09:24:00,
2013-02-20 04:30:00,32.6,19.8,29.83,WNW,298,9.0,15.0,59,0.00,,,0.00,Wunderground v.1.15,2013-02-20 09:30:00,
2013-02-20 04:36:00,32.5,19.7,29.84,WNW,286,8.0,15.0,59,0.00,,,0.00,Wunderground v.1.15,2013-02-20 09:36:00,
2013-02-20 04:42:00,32.5,19.7,29.84,West,279,8.0,15.0,59,0.00,,,0.00,Wunderground v.1.15,2013-02-20 09:42:00,
2013-02-20 04:48:00,32.3,20.0,29.84,WNW,286,7.0,15.0,60,0.00,,,0.00,Wunderground v.1.15,2013-02-20 09:48:00,
2013-02-20 04:54:00,32.3,19.6,29.84,West,273,8.0,15.0,59,0.00,,,0.00,Wunderground v.1.15,2013-02-20 09:54:00,
2013-02-20 05:00:00,32.2,19.5,29.85,West,278,8.0,15.0,59,0.00,,,0.00,Wunderground v.1.15,2013-02-20 10:00:00,
2013-02-20 05:06:00,32.2,19.1,29.84,West,271,8.0,17.0,58,0.00,,,0.00,Wunderground v.1.15,2013-02-20 10:06:00,
2013-02-20 05:12:00,32.2,19.1,29.84,West,277,8.0,8.0,58,0.00,,,0.00,Wunderground v.1.15,2013-02-20 10:12:00,
2013-02-20 05:18:00,32.1,19.0,29.85,NW,320,8.0,15.0,58,0.00,,,0.00,Wunderground v.1.15,2013-02-20 10:18:00,
2013-02-20 05:24:00,32.0,19.3,29.85,NNW,332,7.0,15.0,59,0.00,,,0.00,Wunderground v.1.15,2013-02-20 10:24:00,
2013-02-20 05:30:00,31.9,19.6,29.85,WNW,291,6.0,15.0,60,0.00,,,0.00,Wunderground v.1.15,2013-02-20 10:30:00,
2013-02-20 05:36:00,31.8,19.5,29.85,NW,309,6.0,15.0,60,0.00,,,0.00,Wunderground v.1.15,2013-02-20 10:36:00,
2013-02-20 05:42:00,31.7,19.8,29.86,NW,323,5.0,5.0,61,0.00,,,0.00,Wunderground v.1.15,2013-02-20 10:42:00,
2013-02-20 05:48:00,31.6,19.7,29.86,WNW,295,5.0,15.0,61,0.00,,,0.00,Wunderground v.1.15,2013-02-20 10:48:00,
2013-02-20 05:54:00,31.5,20.0,29.86,WNW,300,4.0,15.0,62,0.00,,,0.00,Wunderground v.1.15,2013-02-20 10:54:00,
2013-02-20 06:00:00,31.3,20.5,29.86,WNW,302,3.0,15.0,64,0.00,,,0.00,Wunderground v.1.15,2013-02-20 11:00:00,
2013-02-20 06:06:00,31.2,20.4,29.86,West,276,5.0,15.0,64,0.00,,,0.00,Wunderground v.1.15,2013-02-20 11:06:00,
2013-02-20 06:12:00,31.4,20.6,29.87,West,279,7.0,15.0,64,0.00,,,0.00,Wunderground v.1.15,2013-02-20 11:12:00,
2013-02-20 06:18:00,31.4,20.6,29.86,WNW,287,8.0,15.0,64,0.00,,,0.00,Wunderground v.1.15,2013-02-20 11:18:00,
2013-02-20 06:24:00,31.3,20.5,29.87,NW,304,7.0,15.0,64,0.00,,,0.00,Wunderground v.1.15,2013-02-20 11:24:00,
2013-02-20 06:30:00,31.2,19.7,29.87,WSW,244,7.0,15.0,62,0.00,,,0.00,Wunderground v.1.15,2013-02-20 11:30:00,
2013-02-20 06:36:00,31.1,19.2,29.87,NW,313,7.0,15.0,61,0.00,,,0.00,Wunderground v.1.15,2013-02-20 11:36:00,
2013-02-20 06:42:00,31.1,18.8,29.88,West,272,7.0,15.0,60,0.00,,,0.00,Wunderground v.1.15,2013-02-20 11:42:00,
2013-02-20 06:48:00,30.9,18.6,29.88,WNW,293,7.0,15.0,60,0.00,,,0.00,Wunderground v.1.15,2013-02-20 11:48:00,
2013-02-20 06:54:00,30.8,18.5,29.89,WNW,282,5.0,7.0,60,0.00,,,0.00,Wunderground v.1.15,2013-02-20 11:54:00,
2013-02-20 07:00:00,30.7,18.1,29.89,WNW,291,5.0,15.0,59,0.00,,,0.00,Wunderground v.1.15,2013-02-20 12:00:00,
2013-02-20 07:06:00,30.6,17.2,29.90,WNW,297,6.0,15.0,57,0.00,,,0.00,Wunderground v.1.15,2013-02-20 12:06:00,
2013-02-20 07:12:00,30.6,17.6,29.90,NW,321,7.0,7.0,58,0.00,,,0.00,Wunderground v.1.15,2013-02-20 12:12:00,
2013-02-20 07:18:00,30.6,16.7,29.90,WNW,292,6.0,15.0,56,0.00,,,0.00,Wunderground v.1.15,2013-02-20 12:18:00,
2013-02-20 07:24:00,30.7,16.8,29.90,NW,316,8.0,15.0,56,0.00,,,0.00,Wunderground v.1.15,2013-02-20 12:24:00,
2013-02-20 07:30:00,30.7,16.8,29.90,NW,311,8.0,15.0,56,0.00,,,0.00,Wunderground v.1.15,2013-02-20 12:30:00,
2013-02-20 07:36:00,30.8,16.5,29.91,West,259,8.0,15.0,55,0.00,,,0.00,Wunderground v.1.15,2013-02-20 12:36:00,
2013-02-20 07:42:00,30.8,16.5,29.91,NW,324,9.0,15.0,55,0.00,,,0.00,Wunderground v.1.15,2013-02-20 12:42:00,
2013-02-20 07:48:00,31.0,17.1,29.92,WNW,297,8.0,15.0,56,0.00,,,0.00,Wunderground v.1.15,2013-02-20 12:48:00,
2013-02-20 07:54:00,31.0,16.7,29.92,WSW,254,9.0,13.0,55,0.00,,,0.00,Wunderground v.1.15,2013-02-20 12:54:00,
2013-02-20 08:00:00,31.1,16.4,29.92,WNW,285,9.0,15.0,54,0.00,,,0.00,Wunderground v.1.15,2013-02-20 13:00:00,
2013-02-20 08:06:00,31.3,16.1,29.92,WNW,291,10.0,15.0,53,0.00,,,0.00,Wunderground v.1.15,2013-02-20 13:06:00,
2013-02-20 08:12:00,31.4,16.2,29.93,WNW,300,11.0,15.0,53,0.00,,,0.00,Wunderground v.1.15,2013-02-20 13:12:00,
2013-02-20 08:18:00,31.7,16.5,29.93,NW,309,11.0,15.0,53,0.00,,,0.00,Wunderground v.1.15,2013-02-20 13:18:00,
2013-02-20 08:24:00,31.8,16.2,29.93,WNW,298,12.0,16.0,52,0.00,,,0.00,Wunderground v.1.15,2013-02-20 13:24:00,
2013-02-20 08:30:00,31.9,16.2,29.93,NW,311,12.0,16.0,52,0.00,,,0.00,Wunderground v.1.15,2013-02-20 13:30:00,
2013-02-20 08:36:00,32.0,16.3,29.93,NW,319,11.0,15.0,52,0.00,,,0.00,Wunderground v.1.15,2013-02-20 13:36:00,
2013-02-20 08:42:00,32.2,17.0,29.93,WNW,293,10.0,10.0,53,0.00,,,0.00,Wunderground v.1.15,2013-02-20 13:42:00,
2013-02-20 08:48:00,32.6,17.3,29.93,WNW,285,8.0,15.0,53,0.00,,,0.00,Wunderground v.1.15,2013-02-20 13:48:00,
2013-02-20 08:54:00,32.8,17.1,29.93,West,262,8.0,9.0,52,0.00,,,0.00,Wunderground v.1.15,2013-02-20 13:54:00,
2013-02-20 09:00:00,33.0,16.8,29.93,WNW,285,8.0,15.0,51,0.00,,,0.00,Wunderground v.1.15,2013-02-20 14:00:00,
2013-02-20 09:06:00,33.4,17.2,29.93,NW,315,8.0,15.0,51,0.00,,,0.00,Wunderground v.1.15,2013-02-20 14:06:00,
2013-02-20 09:12:00,33.4,16.7,29.93,NNW,335,8.0,8.0,50,0.00,,,0.00,Wunderground v.1.15,2013-02-20 14:12:00,
2013-02-20 09:18:00,33.6,16.5,29.93,WNW,298,8.0,15.0,49,0.00,,,0.00,Wunderground v.1.15,2013-02-20 14:18:00,
2013-02-20 09:24:00,33.6,16.5,29.92,WNW,296,9.0,15.0,49,0.00,,,0.00,Wunderground v.1.15,2013-02-20 14:24:00,
2013-02-20 09:30:00,34.1,16.9,29.92,WNW,293,7.0,15.0,49,0.00,,,0.00,Wunderground v.1.15,2013-02-20 14:30:00,
2013-02-20 09:36:00,34.4,16.7,29.92,WSW,246,7.0,15.0,48,0.00,,,0.00,Wunderground v.1.15,2013-02-20 14:36:00,
2013-02-20 09:42:00,34.2,16.5,29.93,NW,315,8.0,15.0,48,0.00,,,0.00,Wunderground v.1.15,2013-02-20 14:42:00,
2013-02-20 09:48:00,33.5,16.4,29.93,NW,312,10.0,15.0,49,0.00,,,0.00,Wunderground v.1.15,2013-02-20 14:48:00,
2013-02-20 09:54:00,33.2,16.5,29.93,NNW,331,9.0,15.0,50,0.00,,,0.00,Wunderground v.1.15,2013-02-20 14:54:00,
2013-02-20 10:00:00,33.0,16.8,29.93,West,278,8.0,15.0,51,0.00,,,0.00,Wunderground v.1.15,2013-02-20 15:00:00,
2013-02-20 10:06:00,32.9,16.7,29.93,West,277,9.0,15.0,51,0.00,,,0.00,Wunderground v.1.15,2013-02-20 15:06:00,
2013-02-20 10:12:00,32.8,16.6,29.93,WNW,300,11.0,11.0,51,0.00,,,0.00,Wunderground v.1.15,2013-02-20 15:12:00,
2013-02-20 10:18:00,33.2,17.0,29.93,West,274,10.0,15.0,51,0.00,,,0.00,Wunderground v.1.15,2013-02-20 15:18:00,
2013-02-20 10:24:00,33.9,17.7,29.93,WSW,246,9.0,15.0,51,0.00,,,0.00,Wunderground v.1.15,2013-02-20 15:24:00,
2013-02-20 10:30:00,34.0,16.8,29.93,WNW,293,9.0,15.0,49,0.00,,,0.00,Wunderground v.1.15,2013-02-20 15:30:00,
2013-02-20 10:36:00,33.7,16.5,29.93,West,263,9.0,14.0,49,0.00,,,0.00,Wunderground v.1.15,2013-02-20 15:36:00,
2013-02-20 10:42:00,33.5,15.9,29.93,WNW,282,9.0,15.0,48,0.00,,,0.00,Wunderground v.1.15,2013-02-20 15:42:00,
2013-02-20 10:48:00,33.4,16.3,29.92,West,266,10.0,15.0,49,0.00,,,0.00,Wunderground v.1.15,2013-02-20 15:48:00,
2013-02-20 10:54:00,33.3,15.7,29.92,WNW,292,9.0,15.0,48,0.00,,,0.00,Wunderground v.1.15,2013-02-20 15:54:00,
2013-02-20 11:00:00,33.3,15.7,29.92,WNW,299,7.0,15.0,48,0.00,,,0.00,Wunderground v.1.15,2013-02-20 16:00:00,
2013-02-20 11:06:00,34.5,16.3,29.92,West,261,8.0,15.0,47,0.00,,,0.00,Wunderground v.1.15,2013-02-20 16:06:00,
2013-02-20 11:12:00,35.0,16.3,29.92,WNW,302,9.0,15.0,46,0.00,,,0.00,Wunderground v.1.15,2013-02-20 16:12:00,
2013-02-20 11:18:00,34.6,15.4,29.92,NW,318,9.0,15.0,45,0.00,,,0.00,Wunderground v.1.15,2013-02-20 16:18:00,
2013-02-20 11:24:00,34.0,13.8,29.92,WNW,294,11.0,15.0,43,0.00,,,0.00,Wunderground v.1.15,2013-02-20 16:24:00,
2013-02-20 11:30:00,33.6,14.5,29.92,WNW,296,9.0,15.0,45,0.00,,,0.00,Wunderground v.1.15,2013-02-20 16:30:00,
2013-02-20 11:36:00,34.1,15.5,29.92,NNE,31,8.0,15.0,46,0.00,,,0.00,Wunderground v.1.15,2013-02-20 16:36:00,
2013-02-20 11:42:00,35.3,15.5,29.92,WNW,286,9.0,15.0,44,0.00,,,0.00,Wunderground v.1.15,2013-02-20 16:42:00,
2013-02-20 11:48:00,35.2,15.4,29.92,WNW,298,11.0,15.0,44,0.00,,,0.00,Wunderground v.1.15,2013-02-20 16:48:00,
2013-02-20 11:54:00,34.2,14.5,29.91,WSW,246,10.0,15.0,44,0.00,,,0.00,Wunderground v.1.15,2013-02-20 16:54:00,
2013-02-20 12:00:00,33.3,13.7,29.91,NW,311,9.0,15.0,44,0.00,,,0.00,Wunderground v.1.15,2013-02-20 17:00:00,
2013-02-20 12:06:00,33.7,14.6,29.91,WNW,297,9.0,13.0,45,0.00,,,0.00,Wunderground v.1.15,2013-02-20 17:06:00,
2013-02-20 12:12:00,34.8,15.6,29.91,WNW,296,9.0,15.0,45,0.00,,,0.00,Wunderground v.1.15,2013-02-20 17:12:00,
2013-02-20 12:18:00,35.2,16.0,29.91,SW,215,8.0,15.0,45,0.00,,,0.00,Wunderground v.1.15,2013-02-20 17:18:00,
2013-02-20 12:24:00,35.8,15.5,29.91,NW,322,7.0,15.0,43,0.00,,,0.00,Wunderground v.1.15,2013-02-20 17:24:00,
2013-02-20 12:30:00,36.3,15.9,29.91,NW,320,9.0,15.0,43,0.00,,,0.00,Wunderground v.1.15,2013-02-20 17:30:00,
2013-02-20 12:36:00,36.7,16.3,29.90,WSW,248,9.0,15.0,43,0.00,,,0.00,Wunderground v.1.15,2013-02-20 17:36:00,
2013-02-20 12:42:00,36.5,15.0,29.91,WSW,253,9.0,9.0,41,0.00,,,0.00,Wunderground v.1.15,2013-02-20 17:42:00,
2013-02-20 12:48:00,35.4,14.0,29.90,WNW,294,9.0,15.0,41,0.00,,,0.00,Wunderground v.1.15,2013-02-20 17:48:00,
2013-02-20 12:54:00,34.6,13.8,29.90,NW,322,9.0,15.0,42,0.00,,,0.00,Wunderground v.1.15,2013-02-20 17:54:00,
2013-02-20 13:00:00,34.5,13.7,29.90,West,278,10.0,17.0,42,0.00,,,0.00,Wunderground v.1.15,2013-02-20 18:00:00,
2013-02-20 13:06:00,34.5,14.3,29.91,WNW,282,10.0,15.0,43,0.00,,,0.00,Wunderground v.1.15,2013-02-20 18:06:00,
2013-02-20 13:12:00,35.1,15.3,29.91,WNW,289,9.0,15.0,44,0.00,,,0.00,Wunderground v.1.15,2013-02-20 18:12:00,
2013-02-20 13:18:00,34.8,14.5,29.91,West,275,8.0,15.0,43,0.00,,,0.00,Wunderground v.1.15,2013-02-20 18:18:00,
2013-02-20 13:24:00,34.9,14.1,29.91,WNW,289,8.0,10.0,42,0.00,,,0.00,Wunderground v.1.15,2013-02-20 18:24:00,
2013-02-20 13:30:00,34.1,13.4,29.91,WNW,292,11.0,15.0,42,0.00,,,0.00,Wunderground v.1.15,2013-02-20 18:30:00,
2013-02-20 13:36:00,33.5,13.9,29.91,West,278,10.0,16.0,44,0.00,,,0.00,Wunderground v.1.15,2013-02-20 18:36:00,
2013-02-20 13:42:00,34.3,14.6,29.91,NW,304,9.0,16.0,44,0.00,,,0.00,Wunderground v.1.15,2013-02-20 18:42:00,
2013-02-20 13:48:00,34.4,14.7,29.90,WNW,300,9.0,16.0,44,0.00,,,0.00,Wunderground v.1.15,2013-02-20 18:48:00,
2013-02-20 13:54:00,34.2,14.5,29.91,NW,318,9.0,17.0,44,0.00,,,0.00,Wunderground v.1.15,2013-02-20 18:54:00,
2013-02-20 14:00:00,34.1,14.4,29.91,NW,304,11.0,19.0,44,0.00,,,0.00,Wunderground v.1.15,2013-02-20 19:00:00,
2013-02-20 14:06:00,34.0,13.8,29.91,WNW,298,12.0,19.0,43,0.00,,,0.00,Wunderground v.1.15,2013-02-20 19:06:00,
2013-02-20 14:12:00,34.0,14.3,29.91,NW,313,10.0,15.0,44,0.00,,,0.00,Wunderground v.1.15,2013-02-20 19:12:00,
2013-02-20 14:18:00,33.5,13.4,29.91,West,276,10.0,15.0,43,0.00,,,0.00,Wunderground v.1.15,2013-02-20 19:18:00,
2013-02-20 14:24:00,33.8,14.2,29.92,WNW,289,11.0,12.0,44,0.00,,,0.00,Wunderground v.1.15,2013-02-20 19:24:00,
2013-02-20 14:30:00,33.8,13.6,29.92,WNW,287,10.0,16.0,43,0.00,,,0.00,Wunderground v.1.15,2013-02-20 19:30:00,
2013-02-20 14:36:00,33.3,13.2,29.92,West,274,10.0,15.0,43,0.00,,,0.00,Wunderground v.1.15,2013-02-20 19:36:00,
2013-02-20 14:42:00,33.8,13.6,29.92,NW,304,12.0,12.0,43,0.00,,,0.00,Wunderground v.1.15,2013-02-20 19:42:00,
2013-02-20 14:48:00,34.3,13.6,29.92,WNW,290,12.0,15.0,42,0.00,,,0.00,Wunderground v.1.15,2013-02-20 19:48:00,
2013-02-20 14:54:00,34.0,13.8,29.92,WNW,290,10.0,15.0,43,0.00,,,0.00,Wunderground v.1.15,2013-02-20 19:54:00,
2013-02-20 15:00:00,33.8,13.1,29.93,NW,319,10.0,15.0,42,0.00,,,0.00,Wunderground v.1.15,2013-02-20 20:00:00,
2013-02-20 15:06:00,33.7,12.5,29.93,WNW,287,10.0,15.0,41,0.00,,,0.00,Wunderground v.1.15,2013-02-20 20:06:00,
2013-02-20 15:12:00,33.3,12.6,29.93,NW,312,10.0,15.0,42,0.00,,,0.00,Wunderground v.1.15,2013-02-20 20:12:00,
2013-02-20 15:18:00,32.7,12.6,29.93,West,280,12.0,21.0,43,0.00,,,0.00,Wunderground v.1.15,2013-02-20 20:18:00,
2013-02-20 15:24:00,32.3,12.3,29.94,WNW,300,13.0,15.0,43,0.00,,,0.00,Wunderground v.1.15,2013-02-20 20:24:00,
2013-02-20 15:30:00,32.0,12.5,29.93,WNW,284,11.0,15.0,44,0.00,,,0.00,Wunderground v.1.15,2013-02-20 20:30:00,
2013-02-20 15:36:00,31.9,11.9,29.93,WNW,298,10.0,18.0,43,0.00,,,0.00,Wunderground v.1.15,2013-02-20 20:36:00,
2013-02-20 15:42:00,32.1,11.6,29.94,NW,311,11.0,11.0,42,0.00,,,0.00,Wunderground v.1.15,2013-02-20 20:42:00,
2013-02-20 15:48:00,32.8,13.2,29.94,NNW,343,8.0,15.0,44,0.00,,,0.00,Wunderground v.1.15,2013-02-20 20:48:00,
2013-02-20 15:54:00,33.0,11.3,29.94,NNW,329,10.0,21.0,40,0.00,,,0.00,Wunderground v.1.15,2013-02-20 20:54:00,
2013-02-20 16:00:00,32.9,11.2,29.94,West,265,12.0,25.0,40,0.00,,,0.00,Wunderground v.1.15,2013-02-20 21:00:00,
2013-02-20 16:06:00,32.9,11.7,29.94,WNW,284,10.0,15.0,41,0.00,,,0.00,Wunderground v.1.15,2013-02-20 21:06:00,
2013-02-20 16:12:00,32.4,11.3,29.94,West,270,10.0,10.0,41,0.00,,,0.00,Wunderground v.1.15,2013-02-20 21:12:00,
2013-02-20 16:18:00,31.7,11.7,29.94,NW,317,10.0,15.0,43,0.00,,,0.00,Wunderground v.1.15,2013-02-20 21:18:00,
2013-02-20 16:24:00,31.5,11.5,29.94,NW,304,10.0,15.0,43,0.00,,,0.00,Wunderground v.1.15,2013-02-20 21:24:00,
2013-02-20 16:30:00,31.6,12.2,29.94,NW,316,10.0,18.0,44,0.00,,,0.00,Wunderground v.1.15,2013-02-20 21:30:00,
2013-02-20 16:36:00,31.6,12.2,29.95,WNW,286,10.0,15.0,44,0.00,,,0.00,Wunderground v.1.15,2013-02-20 21:36:00,
2013-02-20 16:42:00,31.7,12.8,29.95,WNW,288,8.0,15.0,45,0.00,,,0.00,Wunderground v.1.15,2013-02-20 21:42:00,
2013-02-20 16:48:00,31.2,12.3,29.95,WNW,302,9.0,17.0,45,0.00,,,0.00,Wunderground v.1.15,2013-02-20 21:48:00,
2013-02-20 16:54:00,30.9,12.5,29.95,West,281,8.0,15.0,46,0.00,,,0.00,Wunderground v.1.15,2013-02-20 21:54:00,
2013-02-20 17:00:00,30.7,12.3,29.96,West,266,9.0,15.0,46,0.00,,,0.00,Wunderground v.1.15,2013-02-20 22:00:00,
2013-02-20 17:06:00,30.6,12.2,29.96,NNW,345,8.0,15.0,46,0.00,,,0.00,Wunderground v.1.15,2013-02-20 22:06:00,
2013-02-20 17:12:00,30.4,12.1,29.96,WNW,294,8.0,8.0,46,0.00,,,0.00,Wunderground v.1.15,2013-02-20 22:12:00,
2013-02-20 17:18:00,30.2,12.8,29.96,NW,312,9.0,15.0,48,0.00,,,0.00,Wunderground v.1.15,2013-02-20 22:18:00,
2013-02-20 17:24:00,30.1,12.7,29.97,WNW,285,8.0,15.0,48,0.00,,,0.00,Wunderground v.1.15,2013-02-20 22:24:00,
2013-02-20 17:30:00,30.1,12.7,29.97,West,265,8.0,16.0,48,0.00,,,0.00,Wunderground v.1.15,2013-02-20 22:30:00,
2013-02-20 17:36:00,29.9,12.1,29.97,NNW,333,9.0,17.0,47,0.00,,,0.00,Wunderground v.1.15,2013-02-20 22:36:00,
2013-02-20 17:42:00,29.8,12.5,29.98,WNW,284,11.0,11.0,48,0.00,,,0.00,Wunderground v.1.15,2013-02-20 22:42:00,
2013-02-20 17:48:00,29.7,12.8,29.98,West,265,9.0,15.0,49,0.00,,,0.00,Wunderground v.1.15,2013-02-20 22:48:00,
2013-02-20 17:54:00,29.6,13.2,29.98,West,277,7.0,15.0,50,0.00,,,0.00,Wunderground v.1.15,2013-02-20 22:54:00,
2013-02-20 18:00:00,29.4,13.5,29.99,WNW,286,6.0,15.0,51,0.00,,,0.00,Wunderground v.1.15,2013-02-20 23:00:00,
2013-02-20 18:06:00,29.4,13.0,29.99,WNW,301,7.0,15.0,50,0.00,,,0.00,Wunderground v.1.15,2013-02-20 23:06:00,
2013-02-20 18:12:00,29.3,12.9,30.00,NNW,338,8.0,15.0,50,0.00,,,0.00,Wunderground v.1.15,2013-02-20 23:12:00,
2013-02-20 18:18:00,29.2,12.8,30.00,WNW,302,8.0,15.0,50,0.00,,,0.00,Wunderground v.1.15,2013-02-20 23:18:00,
2013-02-20 18:24:00,29.1,13.2,30.00,WNW,282,7.0,15.0,51,0.00,,,0.00,Wunderground v.1.15,2013-02-20 23:24:00,
2013-02-20 18:30:00,29.1,13.2,30.00,North,11,8.0,15.0,51,0.00,,,0.00,Wunderground v.1.15,2013-02-20 23:30:00,
2013-02-20 18:36:00,29.0,13.1,30.00,NW,305,9.0,19.0,51,0.00,,,0.00,Wunderground v.1.15,2013-02-20 23:36:00,
2013-02-20 18:42:00,28.9,13.5,30.00,WNW,298,9.0,15.0,52,0.00,,,0.00,Wunderground v.1.15,2013-02-20 23:42:00,
2013-02-20 18:48:00,28.9,13.9,30.00,NNW,334,8.0,15.0,53,0.00,,,0.00,Wunderground v.1.15,2013-02-20 23:48:00,
2013-02-20 18:54:00,28.8,13.8,30.01,WNW,299,8.0,15.0,53,0.00,,,0.00,Wunderground v.1.15,2013-02-20 23:54:00,
2013-02-20 19:00:00,28.8,13.4,30.01,West,271,10.0,15.0,52,0.00,,,0.00,Wunderground v.1.15,2013-02-21 00:00:00,
2013-02-20 19:06:00,28.8,13.8,30.00,WSW,242,9.0,15.0,53,0.00,,,0.00,Wunderground v.1.15,2013-02-21 00:06:00,
2013-02-20 19:12:00,28.8,13.8,30.00,West,280,8.0,8.0,53,0.00,,,0.00,Wunderground v.1.15,2013-02-21 00:12:00,
2013-02-20 19:18:00,28.7,13.7,30.00,WNW,284,9.0,15.0,53,0.00,,,0.00,Wunderground v.1.15,2013-02-21 00:18:00,
2013-02-20 19:24:00,28.7,13.7,30.00,WNW,301,8.0,15.0,53,0.00,,,0.00,Wunderground v.1.15,2013-02-21 00:24:00,
2013-02-20 19:30:00,28.7,13.7,30.00,WNW,284,9.0,15.0,53,0.00,,,0.00,Wunderground v.1.15,2013-02-21 00:30:00,
2013-02-20 19:36:00,28.7,14.1,30.00,WNW,286,9.0,15.0,54,0.00,,,0.00,Wunderground v.1.15,2013-02-21 00:36:00,
2013-02-20 19:42:00,28.6,14.0,30.01,WNW,284,7.0,7.0,54,0.00,,,0.00,Wunderground v.1.15,2013-02-21 00:42:00,
2013-02-20 19:48:00,28.5,13.9,30.00,WNW,288,7.0,15.0,54,0.00,,,0.00,Wunderground v.1.15,2013-02-21 00:48:00,
2013-02-20 19:54:00,28.4,13.9,30.00,NW,315,7.0,15.0,54,0.00,,,0.00,Wunderground v.1.15,2013-02-21 00:54:00,
2013-02-20 20:00:00,28.4,13.9,30.00,WNW,290,9.0,15.0,54,0.00,,,0.00,Wunderground v.1.15,2013-02-21 01:00:00,
2013-02-20 20:06:00,28.5,13.9,30.01,WNW,298,9.0,15.0,54,0.00,,,0.00,Wunderground v.1.15,2013-02-21 01:06:00,
2013-02-20 20:12:00,28.4,13.9,30.01,WNW,286,8.0,15.0,54,0.00,,,0.00,Wunderground v.1.15,2013-02-21 01:12:00,
2013-02-20 20:18:00,28.4,13.4,30.01,NW,311,10.0,17.0,53,0.00,,,0.00,Wunderground v.1.15,2013-02-21 01:18:00,
2013-02-20 20:24:00,28.4,13.4,30.01,NW,304,9.0,11.0,53,0.00,,,0.00,Wunderground v.1.15,2013-02-21 01:24:00,
2013-02-20 20:30:00,28.4,13.4,30.01,NW,318,9.0,15.0,53,0.00,,,0.00,Wunderground v.1.15,2013-02-21 01:30:00,
2013-02-20 20:36:00,28.3,13.3,30.01,NW,311,8.0,15.0,53,0.00,,,0.00,Wunderground v.1.15,2013-02-21 01:36:00,
2013-02-20 20:42:00,28.2,13.7,30.02,NW,308,6.0,15.0,54,0.00,,,0.00,Wunderground v.1.15,2013-02-21 01:42:00,
2013-02-20 20:48:00,28.2,13.2,30.02,NW,308,7.0,17.0,53,0.00,,,0.00,Wunderground v.1.15,2013-02-21 01:48:00,
2013-02-20 20:54:00,28.3,13.3,30.02,NNW,330,9.0,15.0,53,0.00,,,0.00,Wunderground v.1.15,2013-02-21 01:54:00,
2013-02-20 21:00:00,28.2,13.2,30.02,WNW,300,7.0,15.0,53,0.00,,,0.00,Wunderground v.1.15,2013-02-21 02:00:00,
2013-02-20 21:06:00,28.0,13.1,30.02,WSW,251,7.0,15.0,53,0.00,,,0.00,Wunderground v.1.15,2013-02-21 02:06:00,
2013-02-20 21:12:00,28.0,13.1,30.02,NNW,337,8.0,15.0,53,0.00,,,0.00,Wunderground v.1.15,2013-02-21 02:12:00,
2013-02-20 21:18:00,27.9,13.0,30.03,North,355,9.0,15.0,53,0.00,,,0.00,Wunderground v.1.15,2013-02-21 02:18:00,
2013-02-20 21:24:00,27.8,12.9,30.03,WNW,295,7.0,15.0,53,0.00,,,0.00,Wunderground v.1.15,2013-02-21 02:24:00,
2013-02-20 21:30:00,27.8,12.9,30.04,NW,306,7.0,15.0,53,0.00,,,0.00,Wunderground v.1.15,2013-02-21 02:30:00,
2013-02-20 21:36:00,27.6,12.7,30.04,NW,316,6.0,15.0,53,0.00,,,0.00,Wunderground v.1.15,2013-02-21 02:36:00,
2013-02-20 21:42:00,27.5,12.6,30.03,NW,315,7.0,15.0,53,0.00,,,0.00,Wunderground v.1.15,2013-02-21 02:42:00,
2013-02-20 21:48:00,27.5,12.6,30.03,WNW,288,7.0,15.0,53,0.00,,,0.00,Wunderground v.1.15,2013-02-21 02:48:00,
2013-02-20 21:54:00,27.4,12.9,30.03,WNW,292,6.0,15.0,54,0.00,,,0.00,Wunderground v.1.15,2013-02-21 02:54:00,
2013-02-20 22:00:00,27.2,12.3,30.03,WNW,292,5.0,15.0,53,0.00,,,0.00,Wunderground v.1.15,2013-02-21 03:00:00,
2013-02-20 22:06:00,27.1,12.2,30.03,WNW,294,5.0,15.0,53,0.00,,,0.00,Wunderground v.1.15,2013-02-21 03:06:00,
2013-02-20 22:12:00,27.0,12.1,30.03,NW,306,6.0,6.0,53,0.00,,,0.00,Wunderground v.1.15,2013-02-21 03:12:00,
2013-02-20 22:18:00,27.0,12.1,30.04,WNW,288,6.0,15.0,53,0.00,,,0.00,Wunderground v.1.15,2013-02-21 03:18:00,
2013-02-20 22:24:00,26.9,12.5,30.04,NW,309,5.0,15.0,54,0.00,,,0.00,Wunderground v.1.15,2013-02-21 03:24:00,
2013-02-20 22:30:00,26.7,12.3,30.04,WNW,301,5.0,15.0,54,0.00,,,0.00,Wunderground v.1.15,2013-02-21 03:30:00,
2013-02-20 22:36:00,26.7,12.3,30.04,West,279,6.0,15.0,54,0.00,,,0.00,Wunderground v.1.15,2013-02-21 03:36:00,
2013-02-20 22:42:00,26.8,12.4,30.04,NW,310,8.0,8.0,54,0.00,,,0.00,Wunderground v.1.15,2013-02-21 03:42:00,
2013-02-20 22:48:00,26.7,12.3,30.04,WNW,294,7.0,15.0,54,0.00,,,0.00,Wunderground v.1.15,2013-02-21 03:48:00,
2013-02-20 22:54:00,26.7,12.3,30.04,WNW,292,8.0,15.0,54,0.00,,,0.00,Wunderground v.1.15,2013-02-21 03:54:00,
2013-02-20 23:00:00,26.7,12.3,30.05,NW,306,7.0,15.0,54,0.00,,,0.00,Wunderground v.1.15,2013-02-21 04:00:00,
2013-02-20 23:06:00,26.6,13.8,30.05,NW,311,6.0,15.0,58,0.00,,,0.00,Wunderground v.1.15,2013-02-21 04:06:00,
2013-02-20 23:12:00,26.5,12.5,30.05,NW,306,6.0,15.0,55,0.00,,,0.00,Wunderground v.1.15,2013-02-21 04:12:00,
2013-02-20 23:18:00,26.5,12.5,30.05,NW,313,7.0,15.0,55,0.00,,,0.00,Wunderground v.1.15,2013-02-21 04:18:00,
2013-02-20 23:24:00,26.4,12.8,30.05,NW,317,5.0,15.0,56,0.00,,,0.00,Wunderground v.1.15,2013-02-21 04:24:00,
2013-02-20 23:30:00,26.3,12.7,30.05,NW,313,5.0,15.0,56,0.00,,,0.00,Wunderground v.1.15,2013-02-21 04:30:00,
2013-02-20 23:36:00,26.2,13.0,30.05,WNW,292,4.0,10.0,57,0.00,,,0.00,Wunderground v.1.15,2013-02-21 04:36:00,
2013-02-20 23:42:00,26.2,13.4,30.05,WNW,300,5.0,5.0,58,0.00,,,0.00,Wunderground v.1.15,2013-02-21 04:42:00,
2013-02-20 23:48:00,26.1,13.3,30.05,NNW,347,5.0,15.0,58,0.00,,,0.00,Wunderground v.1.15,2013-02-21 04:48:00,
2013-02-20 23:54:00,26.0,12.8,30.05,NW,311,6.0,15.0,57,0.00,,,0.00,Wunderground v.1.15,2013-02-21 04:54:00,